Time;durP1;ratioP1;P1;durP2;ratioP2;P2;SDS_P1;SDS_P2;PMS_P1;PMS_P2;Temp;Humidity;BMP_temperature;BMP_pressure;BME280_temperature;BME280_humidity;BME280_pressure;Samples;Min_cycle;Max_cycle;Signal;HPM_P1;HPM_P2
2022/09/21 00:01:44;;;;;;;7.10;2.60;;;7.90;99.90;;;;;;5055393;28;20215;-58
2022/09/21 00:04:11;;;;;;;5.30;2.33;;;7.80;99.90;;;;;;5055366;28;20772;-57
2022/09/21 00:06:37;;;;;;;5.93;2.33;;;7.80;99.90;;;;;;5054948;28;20741;-55
2022/09/21 00:09:07;;;;;;;4.30;2.53;;;7.80;99.90;;;;;;5055158;28;20787;-50
2022/09/21 00:11:35;;;;;;;5.80;2.80;;;7.80;99.90;;;;;;5055104;28;20717;-56
2022/09/21 00:14:06;;;;;;;7.33;2.90;;;7.80;99.90;;;;;;5055323;28;20204;-53
2022/09/21 00:16:32;;;;;;;5.67;3.00;;;7.80;99.90;;;;;;5054836;28;20233;-55
2022/09/21 00:18:59;;;;;;;5.17;3.20;;;7.70;99.90;;;;;;5055510;28;20213;-57
2022/09/21 00:21:27;;;;;;;4.03;2.90;;;7.70;99.90;;;;;;5055606;28;20269;-57
2022/09/21 00:23:54;;;;;;;8.13;3.27;;;7.80;99.90;;;;;;5055603;28;20210;-54
2022/09/21 00:26:23;;;;;;;5.33;3.30;;;7.70;99.90;;;;;;5054831;28;20228;-56
2022/09/21 00:28:54;;;;;;;5.83;2.90;;;7.70;99.90;;;;;;5054937;28;20279;-57
2022/09/21 00:31:21;;;;;;;9.07;2.63;;;7.70;99.90;;;;;;5054854;28;20263;-56
2022/09/21 00:33:48;;;;;;;5.63;3.20;;;7.60;99.90;;;;;;5054807;28;20212;-55
2022/09/21 00:36:17;;;;;;;10.80;3.10;;;7.60;99.90;;;;;;5054642;28;20239;-59
2022/09/21 00:38:45;;;;;;;8.27;2.90;;;7.60;99.90;;;;;;5054634;28;20682;-60
2022/09/21 00:41:12;;;;;;;7.73;2.63;;;7.50;99.90;;;;;;5054895;28;20217;-54
2022/09/21 00:43:44;;;;;;;5.67;2.70;;;7.50;99.90;;;;;;5054771;28;20254;-57
2022/09/21 00:46:19;;;;;;;7.30;2.20;;;7.50;99.90;;;;;;5054211;28;20228;-56
2022/09/21 00:48:45;;;;;;;4.53;2.50;;;7.50;99.90;;;;;;5054759;28;20226;-55
2022/09/21 00:51:13;;;;;;;8.30;2.33;;;7.50;99.90;;;;;;5054390;28;20307;-58
2022/09/21 00:53:40;;;;;;;5.70;2.73;;;7.40;99.90;;;;;;5054475;28;20234;-54
2022/09/21 00:56:09;;;;;;;7.47;2.30;;;7.50;99.90;;;;;;5054188;28;20228;-57
2022/09/21 00:58:40;;;;;;;3.17;2.37;;;7.40;99.90;;;;;;5054357;28;20261;-56
2022/09/21 01:01:07;;;;;;;6.17;2.03;;;7.40;99.90;;;;;;5053751;28;20207;-56
2022/09/21 01:03:35;;;;;;;4.57;2.50;;;7.40;99.90;;;;;;5054554;28;20623;-55
2022/09/21 01:06:01;;;;;;;6.70;3.10;;;7.40;99.90;;;;;;5054223;28;20632;-57
2022/09/21 01:08:29;;;;;;;5.03;2.63;;;7.40;99.90;;;;;;5054110;28;20213;-54
2022/09/21 01:11:12;;;;;;;3.37;2.43;;;7.40;99.90;;;;;;5054140;28;20627;-57
2022/09/21 01:13:55;;;;;;;4.40;2.50;;;7.30;99.90;;;;;;5054444;28;20208;-58
2022/09/21 01:16:28;;;;;;;8.63;2.50;;;7.30;99.90;;;;;;5053702;28;20717;-55
2022/09/21 01:19:02;;;;;;;3.57;2.63;;;7.30;99.90;;;;;;5054024;28;20215;-57
2022/09/21 01:21:33;;;;;;;3.70;2.57;;;7.30;99.90;;;;;;5053844;28;20243;-57
2022/09/21 01:24:29;;;;;;;4.83;2.60;;;7.30;99.90;;;;;;5054170;28;20210;-57
2022/09/21 01:27:16;;;;;;;10.93;2.90;;;7.20;99.90;;;;;;5053647;28;20301;-55
2022/09/21 01:29:48;;;;;;;5.77;2.67;;;7.20;99.90;;;;;;5053763;28;20574;-57
2022/09/21 01:32:19;;;;;;;6.20;2.83;;;7.20;99.90;;;;;;5053952;28;20267;-53
2022/09/21 01:34:53;;;;;;;5.07;2.83;;;7.20;99.90;;;;;;5053815;28;20223;-56
2022/09/21 01:37:24;;;;;;;4.80;2.77;;;7.20;99.90;;;;;;5053381;28;20230;-60
2022/09/21 01:39:55;;;;;;;5.53;2.63;;;7.20;99.90;;;;;;5053704;28;20208;-55
2022/09/21 01:42:25;;;;;;;5.93;2.67;;;7.20;99.90;;;;;;5053693;28;20212;-60
2022/09/21 01:44:56;;;;;;;6.77;3.20;;;7.20;99.90;;;;;;5053468;28;20205;-59
2022/09/21 01:47:24;;;;;;;6.97;3.00;;;7.10;99.90;;;;;;5053375;28;20226;-58
2022/09/21 01:49:54;;;;;;;5.27;3.03;;;7.10;99.90;;;;;;5053487;28;20265;-57
2022/09/21 01:52:24;;;;;;;9.07;3.00;;;7.10;99.90;;;;;;5053469;28;20626;-54
2022/09/21 01:54:54;;;;;;;5.80;2.67;;;7.10;99.90;;;;;;5053265;28;20211;-56
2022/09/21 01:57:27;;;;;;;8.43;2.70;;;7.10;99.90;;;;;;5053120;28;20260;-57
2022/09/21 01:59:57;;;;;;;5.80;2.70;;;7.10;99.90;;;;;;5053376;28;20211;-59
2022/09/21 02:02:31;;;;;;;4.70;2.83;;;7.10;99.90;;;;;;5053185;28;20678;-59
2022/09/21 02:05:00;;;;;;;11.30;3.27;;;7.10;99.90;;;;;;5053133;28;20596;-60
2022/09/21 02:07:27;;;;;;;10.33;3.60;;;7.10;99.90;;;;;;5052645;28;20284;-57
2022/09/21 02:09:54;;;;;;;6.07;2.93;;;7.20;99.90;;;;;;5053307;28;20227;-57
2022/09/21 02:12:21;;;;;;;8.17;3.53;;;7.10;99.90;;;;;;5051974;28;20206;-52
2022/09/21 02:14:49;;;;;;;9.13;4.13;;;7.10;99.90;;;;;;5053326;28;20213;-57
2022/09/21 02:17:30;;;;;;;9.93;2.93;;;7.10;99.90;;;;;;5052690;28;20642;-59
2022/09/21 02:20:05;;;;;;;5.20;2.93;;;7.10;99.90;;;;;;5052847;28;20868;-56
2022/09/21 02:22:39;;;;;;;5.43;2.30;;;7.10;99.90;;;;;;5052935;28;20258;-55
2022/09/21 02:25:10;;;;;;;4.80;2.03;;;7.10;99.90;;;;;;5053039;28;20291;-53
2022/09/21 02:27:44;;;;;;;4.50;2.33;;;7.10;99.90;;;;;;5052397;28;20222;-60
2022/09/21 02:30:15;;;;;;;6.43;2.60;;;7.10;99.90;;;;;;5052654;28;20265;-57
2022/09/21 02:32:49;;;;;;;8.57;2.30;;;7.10;99.90;;;;;;5052544;28;20678;-55
2022/09/21 02:35:29;;;;;;;7.50;3.03;;;7.00;99.90;;;;;;5052737;28;20209;-58
2022/09/21 02:38:03;;;;;;;6.00;2.70;;;7.00;99.90;;;;;;5052351;28;20205;-57
2022/09/21 02:40:33;;;;;;;5.13;2.63;;;6.90;99.90;;;;;;5052569;28;20209;-57
2022/09/21 02:43:05;;;;;;;4.93;3.13;;;6.90;99.90;;;;;;5052274;28;20259;-55
2022/09/21 02:45:40;;;;;;;8.43;3.10;;;6.90;99.90;;;;;;5052618;28;20201;-57
2022/09/21 02:48:11;;;;;;;8.03;2.93;;;6.90;99.90;;;;;;5052164;28;20208;-55
2022/09/21 02:50:44;;;;;;;9.53;3.53;;;6.90;99.90;;;;;;5052362;28;20225;-56
2022/09/21 02:53:13;;;;;;;7.17;2.73;;;7.00;99.90;;;;;;5052103;28;20206;-55
2022/09/21 02:55:43;;;;;;;6.13;3.10;;;7.00;99.90;;;;;;5052373;28;20240;-55
2022/09/21 02:58:13;;;;;;;5.20;3.20;;;7.00;99.90;;;;;;5052293;28;20242;-57
2022/09/21 03:00:40;;;;;;;6.47;3.17;;;7.00;99.90;;;;;;5052339;28;20205;-53
2022/09/21 03:03:17;;;;;;;9.50;3.30;;;7.00;99.90;;;;;;5052002;28;20750;-54
2022/09/21 03:05:46;;;;;;;9.17;3.87;;;7.00;99.90;;;;;;5051894;28;20255;-55
2022/09/21 03:08:13;;;;;;;8.87;3.10;;;7.00;99.90;;;;;;5051926;28;20311;-55
2022/09/21 03:10:39;;;;;;;6.97;3.07;;;7.00;99.90;;;;;;5051817;28;20726;-58
2022/09/21 03:13:07;;;;;;;9.13;3.20;;;7.00;99.90;;;;;;5052164;28;20213;-55
2022/09/21 03:15:34;;;;;;;8.80;3.20;;;7.10;99.90;;;;;;5051764;28;20672;-56
2022/09/21 03:18:01;;;;;;;8.77;3.20;;;7.10;99.90;;;;;;5051705;28;20293;-56
2022/09/21 03:20:31;;;;;;;6.97;3.20;;;7.10;99.90;;;;;;5051848;28;20218;-55
2022/09/21 03:22:57;;;;;;;8.57;3.43;;;7.10;99.90;;;;;;5051489;28;20309;-55
2022/09/21 03:25:24;;;;;;;10.43;4.27;;;7.10;99.90;;;;;;5051920;28;20208;-57
2022/09/21 03:27:51;;;;;;;9.30;4.47;;;7.10;99.90;;;;;;5051570;28;20237;-59
2022/09/21 03:30:18;;;;;;;14.00;5.20;;;7.10;99.90;;;;;;5051653;28;20299;-53
2022/09/21 03:32:44;;;;;;;8.77;4.00;;;7.10;99.90;;;;;;5051696;28;20273;-56
2022/09/21 03:35:11;;;;;;;13.47;3.93;;;7.10;99.90;;;;;;5051841;28;20213;-55
2022/09/21 03:37:39;;;;;;;12.73;4.23;;;7.10;99.90;;;;;;5051607;28;20619;-54
2022/09/21 03:40:06;;;;;;;12.50;4.57;;;7.10;99.90;;;;;;5051727;28;20211;-51
2022/09/21 03:42:33;;;;;;;11.97;4.13;;;7.10;99.90;;;;;;5051735;28;20556;-60
2022/09/21 03:45:00;;;;;;;5.13;3.97;;;7.10;99.90;;;;;;5051529;28;20206;-51
2022/09/21 03:47:28;;;;;;;10.13;3.73;;;7.10;99.90;;;;;;5051118;28;20271;-53
2022/09/21 03:49:54;;;;;;;9.77;4.93;;;7.10;99.90;;;;;;5051598;28;20233;-56
2022/09/21 03:52:21;;;;;;;5.90;3.80;;;7.10;99.90;;;;;;5051442;28;20207;-56
2022/09/21 03:54:49;;;;;;;8.13;4.07;;;7.10;99.90;;;;;;5051532;28;20635;-54
2022/09/21 03:57:16;;;;;;;5.50;3.53;;;7.20;99.90;;;;;;5051230;28;20227;-49
2022/09/21 03:59:42;;;;;;;8.90;4.03;;;7.20;99.90;;;;;;5051352;28;20205;-56
2022/09/21 04:02:09;;;;;;;7.77;3.50;;;7.20;99.90;;;;;;5051320;28;20638;-53
2022/09/21 04:04:36;;;;;;;7.27;3.77;;;7.20;99.90;;;;;;5051493;28;20763;-53
2022/09/21 04:07:03;;;;;;;8.50;4.40;;;7.10;99.90;;;;;;5051313;28;20272;-55
2022/09/21 04:09:30;;;;;;;7.27;4.07;;;7.10;99.90;;;;;;5051216;28;20206;-52
2022/09/21 04:11:58;;;;;;;9.50;4.13;;;7.10;99.90;;;;;;5051382;28;20232;-50
2022/09/21 04:14:24;;;;;;;12.67;4.27;;;7.10;99.90;;;;;;5051242;28;20207;-51
2022/09/21 04:16:51;;;;;;;14.13;4.30;;;7.00;99.90;;;;;;5051237;28;20303;-54
2022/09/21 04:19:18;;;;;;;8.70;4.23;;;7.10;99.90;;;;;;5051269;28;20225;-50
2022/09/21 04:21:45;;;;;;;8.17;3.87;;;7.00;99.90;;;;;;5051864;28;20315;-57
2022/09/21 04:24:11;;;;;;;8.50;4.13;;;7.00;99.90;;;;;;5051677;28;20655;-57
2022/09/21 04:26:39;;;;;;;10.37;3.70;;;7.00;99.90;;;;;;5051272;28;20287;-54
2022/09/21 04:29:07;;;;;;;11.30;3.77;;;7.00;99.90;;;;;;5051054;28;20293;-53
2022/09/21 04:31:34;;;;;;;7.23;3.70;;;7.10;99.90;;;;;;5051167;28;20296;-54
2022/09/21 04:34:01;;;;;;;14.87;3.63;;;7.00;99.90;;;;;;5034617;28;20205;-55
2022/09/21 04:36:28;;;;;;;8.97;4.00;;;7.00;99.90;;;;;;5032769;28;20280;-56
2022/09/21 04:38:55;;;;;;;12.80;4.17;;;7.00;99.90;;;;;;5034381;28;20206;-57
2022/09/21 04:41:22;;;;;;;16.07;4.60;;;7.00;99.90;;;;;;5034281;28;20725;-56
2022/09/21 04:43:48;;;;;;;10.10;3.97;;;7.00;99.90;;;;;;5034192;28;20260;-63
2022/09/21 04:46:18;;;;;;;11.30;4.43;;;7.00;99.90;;;;;;5040873;23;20230;-63
2022/09/21 04:48:46;;;;;;;9.97;5.43;;;7.00;99.90;;;;;;5032301;28;20213;-55
2022/09/21 04:51:14;;;;;;;10.83;6.07;;;7.00;99.90;;;;;;5034046;28;20232;-63
2022/09/21 04:53:42;;;;;;;12.03;5.93;;;7.00;99.90;;;;;;5034286;28;20628;-61
2022/09/21 04:56:12;;;;;;;18.40;7.07;;;7.00;99.90;;;;;;5033353;28;20231;-61
2022/09/21 04:58:39;;;;;;;8.90;6.03;;;7.00;99.90;;;;;;5034358;28;20211;-62
2022/09/21 05:01:06;;;;;;;15.90;6.37;;;7.00;99.90;;;;;;5033974;28;20211;-61
2022/09/21 05:03:34;;;;;;;15.13;6.77;;;7.00;99.90;;;;;;5033984;28;20216;-63
2022/09/21 05:06:01;;;;;;;14.30;6.53;;;7.00;99.90;;;;;;5033437;28;20303;-61
2022/09/21 05:11:18;;;;;;;15.57;6.33;;;7.00;99.90;;;;;;4994928;28;20329;-61
2022/09/21 05:13:47;;;;;;;12.77;6.97;;;7.00;99.90;;;;;;5033637;28;20207;-61
2022/09/21 05:16:14;;;;;;;15.73;6.93;;;7.00;99.90;;;;;;5032845;28;20232;-61
2022/09/21 05:18:42;;;;;;;15.97;6.83;;;7.00;99.90;;;;;;5033596;28;20211;-60
2022/09/21 05:21:11;;;;;;;11.57;5.53;;;7.00;99.90;;;;;;5033403;28;20200;-61
2022/09/21 05:23:38;;;;;;;12.17;6.47;;;7.00;99.90;;;;;;5033571;28;20215;-61
2022/09/21 05:26:05;;;;;;;11.70;6.00;;;7.00;99.90;;;;;;5032697;28;20378;-60
2022/09/21 05:28:32;;;;;;;15.83;6.93;;;7.00;99.90;;;;;;5033576;28;20261;-62
2022/09/21 05:31:09;;;;;;;11.80;6.17;;;7.10;99.90;;;;;;5033515;28;20218;-60
2022/09/21 05:33:39;;;;;;;9.50;5.97;;;7.10;99.90;;;;;;5032523;28;20259;-58
2022/09/21 05:36:27;;;;;;;16.40;6.33;;;7.10;99.90;;;;;;5032459;28;20218;-60
2022/09/21 05:38:55;;;;;;;10.53;6.17;;;7.10;99.90;;;;;;5034164;28;20211;-62
2022/09/21 05:41:22;;;;;;;13.27;6.73;;;7.20;99.90;;;;;;5033437;28;20194;-62
2022/09/21 05:43:49;;;;;;;15.07;6.23;;;7.20;99.90;;;;;;5032642;28;20261;-62
2022/09/21 05:46:20;;;;;;;11.33;5.83;;;7.20;99.90;;;;;;5032632;28;20239;-63
2022/09/21 05:48:54;;;;;;;12.23;5.63;;;7.20;99.90;;;;;;5032907;28;20210;-61
2022/09/21 05:51:32;;;;;;;16.63;5.73;;;7.20;99.90;;;;;;5033213;28;20229;-62
2022/09/21 05:54:05;;;;;;;9.97;6.23;;;7.20;99.90;;;;;;5032750;28;20264;-62
2022/09/21 05:56:42;;;;;;;10.50;6.43;;;7.20;99.90;;;;;;5032827;28;20284;-62
2022/09/21 05:59:28;;;;;;;14.23;6.37;;;7.30;99.90;;;;;;5032811;28;20324;-62
2022/09/21 06:02:02;;;;;;;16.70;5.87;;;7.30;99.90;;;;;;5032904;28;20238;-65
2022/09/21 06:04:29;;;;;;;11.53;6.00;;;7.40;99.90;;;;;;5032656;28;20634;-67
2022/09/21 06:06:57;;;;;;;11.10;5.90;;;7.40;99.90;;;;;;5032287;28;20236;-68
2022/09/21 06:09:24;;;;;;;15.77;6.13;;;7.40;99.90;;;;;;5032748;28;20274;-67
2022/09/21 06:11:51;;;;;;;14.13;7.07;;;7.50;99.90;;;;;;5032925;28;20647;-67
2022/09/21 06:14:23;;;;;;;10.63;5.83;;;7.50;99.90;;;;;;5033023;28;20206;-63
2022/09/21 06:16:50;;;;;;;10.47;5.53;;;7.60;99.90;;;;;;5032228;28;20233;-62
2022/09/21 06:19:16;;;;;;;13.20;5.97;;;7.60;99.90;;;;;;5032581;28;20747;-63
2022/09/21 06:21:43;;;;;;;19.27;6.20;;;7.60;99.90;;;;;;5032173;28;20199;-63
2022/09/21 06:24:11;;;;;;;10.57;6.27;;;7.70;99.90;;;;;;5032509;28;20704;-64
2022/09/21 06:26:38;;;;;;;11.33;6.10;;;7.80;99.90;;;;;;5031962;28;20791;-66
2022/09/21 06:29:05;;;;;;;14.53;6.03;;;7.90;99.90;;;;;;5032555;28;20210;-64
2022/09/21 06:31:33;;;;;;;11.67;6.67;;;7.90;99.90;;;;;;5031956;28;20229;-61
2022/09/21 06:34:00;;;;;;;10.87;6.50;;;8.00;99.90;;;;;;5032361;28;20209;-61
2022/09/21 06:36:26;;;;;;;18.90;7.40;;;8.00;99.90;;;;;;5031709;28;20241;-60
2022/09/21 06:38:53;;;;;;;16.97;7.37;;;8.10;99.90;;;;;;5032361;28;20213;-60
2022/09/21 06:41:21;;;;;;;14.50;6.90;;;8.10;99.90;;;;;;5032023;28;20259;-60
2022/09/21 06:43:48;;;;;;;20.13;7.80;;;8.20;99.90;;;;;;5032503;28;20276;-61
2022/09/21 06:46:15;;;;;;;13.50;7.90;;;8.30;99.90;;;;;;5031798;28;20302;-64
2022/09/21 06:48:41;;;;;;;18.67;7.60;;;8.30;99.90;;;;;;5031487;28;20251;-63
2022/09/21 06:51:09;;;;;;;16.07;7.57;;;8.40;99.90;;;;;;5024492;28;20720;-63
2022/09/21 06:53:36;;;;;;;12.57;7.43;;;8.50;99.90;;;;;;5030537;28;20209;-62
2022/09/21 06:56:04;;;;;;;15.37;7.30;;;8.60;99.90;;;;;;5031663;28;20576;-64
2022/09/21 06:58:34;;;;;;;20.00;7.17;;;8.70;99.90;;;;;;5030585;28;20206;-65
2022/09/21 07:01:06;;;;;;;16.40;7.80;;;8.80;99.90;;;;;;5031409;28;20202;-64
2022/09/21 07:03:32;;;;;;;20.07;8.30;;;8.90;99.90;;;;;;5030598;28;20216;-63
2022/09/21 07:05:59;;;;;;;17.07;8.50;;;9.00;99.90;;;;;;5031377;28;20241;-58
2022/09/21 07:08:26;;;;;;;18.27;8.63;;;9.00;99.90;;;;;;5031366;28;20557;-63
2022/09/21 07:10:53;;;;;;;18.23;8.83;;;9.10;99.90;;;;;;5030801;28;20229;-66
2022/09/21 07:13:19;;;;;;;21.30;8.70;;;9.20;99.90;;;;;;5031057;28;20268;-66
2022/09/21 07:15:47;;;;;;;18.40;9.20;;;9.30;99.90;;;;;;5050042;28;20279;-63
2022/09/21 07:18:14;;;;;;;17.50;8.70;;;9.40;99.90;;;;;;5051289;28;20415;-64
2022/09/21 07:20:41;;;;;;;20.87;9.50;;;9.50;99.90;;;;;;5050463;28;20217;-66
2022/09/21 07:23:13;;;;;;;23.27;9.07;;;9.60;99.90;;;;;;5051193;28;20205;-65
2022/09/21 07:25:39;;;;;;;13.17;8.07;;;9.70;99.90;;;;;;5050439;28;20636;-65
2022/09/21 07:28:06;;;;;;;16.73;6.87;;;9.80;99.90;;;;;;5050949;28;20213;-65
2022/09/21 07:30:32;;;;;;;11.90;6.10;;;9.90;99.90;;;;;;5044851;28;20218;-61
2022/09/21 07:33:00;;;;;;;18.20;6.10;;;10.00;99.90;;;;;;5030691;28;20214;-61
2022/09/21 07:35:27;;;;;;;18.30;6.07;;;10.00;99.90;;;;;;5031058;28;20210;-60
2022/09/21 07:37:55;;;;;;;12.50;6.17;;;10.10;99.90;;;;;;5030526;28;20260;-61
2022/09/21 07:40:22;;;;;;;12.37;5.70;;;10.20;99.90;;;;;;5031232;28;20583;-63
2022/09/21 07:42:49;;;;;;;14.00;5.33;;;10.30;99.90;;;;;;5030324;28;20196;-63
2022/09/21 07:45:16;;;;;;;8.00;5.17;;;10.40;99.90;;;;;;5031553;28;20210;-62
2022/09/21 07:47:42;;;;;;;9.90;5.30;;;10.50;99.90;;;;;;5030835;28;20256;-62
2022/09/21 07:50:11;;;;;;;15.03;5.50;;;10.50;99.90;;;;;;5031646;28;20214;-63
2022/09/21 07:52:37;;;;;;;10.90;5.40;;;10.70;99.90;;;;;;5031137;28;20356;-63
2022/09/21 07:55:04;;;;;;;10.00;4.83;;;10.70;99.90;;;;;;5030848;28;20253;-64
2022/09/21 08:00:16;;;;;;;6.10;4.47;;;10.80;99.90;;;;;;5030895;28;20206;-66
2022/09/21 08:02:42;;;;;;;7.77;4.70;;;10.90;99.90;;;;;;5031400;28;20206;-64
2022/09/21 08:05:10;;;;;;;12.80;4.63;;;10.90;99.90;;;;;;5031043;28;20276;-64
2022/09/21 08:07:37;;;;;;;12.53;4.27;;;11.10;99.90;;;;;;5030343;28;20226;-69
2022/09/21 08:10:04;;;;;;;8.70;3.20;;;11.20;99.90;;;;;;5017007;28;20218;-66
2022/09/21 08:12:30;;;;;;;4.23;2.53;;;11.30;99.90;;;;;;5034676;28;20229;-59
2022/09/21 08:14:57;;;;;;;5.43;2.70;;;11.40;93.50;;;;;;5034243;28;20206;-64
2022/09/21 08:17:24;;;;;;;4.10;2.57;;;11.60;83.00;;;;;;5033867;28;20656;-64
2022/09/21 08:19:51;;;;;;;5.90;2.40;;;11.60;91.90;;;;;;5034588;28;20482;-64
2022/09/21 08:22:19;;;;;;;6.87;2.70;;;11.70;99.90;;;;;;5033824;28;20677;-64
2022/09/21 08:24:47;;;;;;;3.83;2.13;;;11.80;99.90;;;;;;5034293;28;20304;-63
2022/09/21 08:27:14;;;;;;;5.90;2.33;;;11.90;93.70;;;;;;5033857;28;20226;-63
2022/09/21 08:29:42;;;;;;;5.17;2.27;;;12.00;61.50;;;;;;5034702;28;20221;-61
2022/09/21 08:32:09;;;;;;;5.27;1.60;;;12.10;41.50;;;;;;5034984;28;20226;-65
2022/09/21 08:34:35;;;;;;;5.47;2.00;;;12.20;44.70;;;;;;5035128;28;20237;-62
2022/09/21 08:37:02;;;;;;;5.43;2.07;;;12.30;1.00;;;;;;5034215;28;20295;-63
2022/09/21 08:39:30;;;;;;;8.77;2.17;;;12.40;18.80;;;;;;5033790;28;20210;-65
2022/09/21 08:42:16;;;;;;;3.80;1.97;;;12.60;45.20;;;;;;5034098;28;20228;-61
2022/09/21 08:44:48;;;;;;;5.33;1.70;;;12.70;48.90;;;;;;5033218;28;20669;-60
2022/09/21 08:47:19;;;;;;;3.20;1.70;;;12.70;45.60;;;;;;5033646;28;20234;-59
2022/09/21 08:49:49;;;;;;;4.57;1.57;;;12.80;20.80;;;;;;5033963;28;20209;-61
2022/09/21 08:52:19;;;;;;;3.27;1.80;;;12.80;12.30;;;;;;5033974;28;20592;-60
2022/09/21 08:54:54;;;;;;;4.53;1.40;;;12.90;2.00;;;;;;5033276;28;20706;-65
2022/09/21 08:57:26;;;;;;;5.50;1.77;;;12.90;1.00;;;;;;5033632;28;20646;-61
2022/09/21 08:59:53;;;;;;;2.80;1.30;;;13.00;1.00;;;;;;5033283;28;20211;-61
2022/09/21 09:02:40;;;;;;;5.67;1.23;;;13.00;1.00;;;;;;5033778;28;20202;-61
2022/09/21 09:05:22;;;;;;;7.17;1.87;;;13.10;1.00;;;;;;5033621;28;20214;-65
2022/09/21 09:08:09;;;;;;;4.53;1.70;;;13.20;1.00;;;;;;5033263;28;20321;-65
2022/09/21 09:10:41;;;;;;;1.77;1.27;;;13.30;1.00;;;;;;5034040;28;20268;-66
2022/09/21 09:13:28;;;;;;;3.57;1.30;;;13.30;1.00;;;;;;5032937;28;20222;-64
2022/09/21 09:16:05;;;;;;;7.17;1.60;;;13.40;1.00;;;;;;5033353;28;20226;-65
2022/09/21 09:18:41;;;;;;;4.13;1.63;;;13.50;1.00;;;;;;5032963;28;20202;-62
2022/09/21 09:21:15;;;;;;;2.47;1.57;;;13.60;1.00;;;;;;5032948;28;20202;-61
2022/09/21 09:23:46;;;;;;;4.97;1.50;;;13.70;99.90;;;;;;5032729;28;20211;-60
2022/09/21 09:26:19;;;;;;;4.57;0.90;;;13.80;99.90;;;;;;5033172;28;20292;-61
2022/09/21 09:28:53;;;;;;;2.90;1.20;;;13.70;1.00;;;;;;5032837;28;20248;-57
2022/09/21 09:31:23;;;;;;;4.30;1.03;;;13.70;6.20;;;;;;5033085;28;20218;-57
2022/09/21 09:33:57;;;;;;;4.60;0.90;;;13.70;57.00;;;;;;5032723;28;20260;-56
2022/09/21 09:36:27;;;;;;;4.23;0.90;;;13.60;99.90;;;;;;5032952;28;20363;-54
2022/09/21 09:38:57;;;;;;;3.63;0.87;;;13.60;3.20;;;;;;5032468;28;20260;-62
2022/09/21 09:41:46;;;;;;;2.43;0.90;;;13.60;1.00;;;;;;5032996;28;20211;-62
2022/09/21 09:44:28;;;;;;;4.13;0.80;;;13.70;1.00;;;;;;5032837;28;20209;-60
2022/09/21 09:47:04;;;;;;;2.23;0.70;;;13.80;1.00;;;;;;5032568;28;20230;-62
2022/09/21 09:49:44;;;;;;;6.07;1.00;;;14.10;92.10;;;;;;5032767;28;20264;-57
2022/09/21 09:52:15;;;;;;;4.67;1.30;;;14.10;1.00;;;;;;5032714;28;20280;-63
2022/09/21 09:54:41;;;;;;;5.13;0.80;;;14.40;1.00;;;;;;5032583;28;20206;-66
2022/09/21 09:57:10;;;;;;;5.63;1.10;;;14.30;1.00;;;;;;5031920;28;20230;-64
2022/09/21 09:59:41;;;;;;;2.73;0.80;;;14.40;1.00;;;;;;5032838;28;20217;-64
2022/09/21 10:02:20;;;;;;;1.97;0.50;;;14.60;1.00;;;;;;5032179;28;20630;-66
2022/09/21 10:05:02;;;;;;;2.40;1.00;;;14.60;1.00;;;;;;5032566;28;20629;-58
2022/09/21 10:07:35;;;;;;;5.80;0.80;;;14.60;99.90;;;;;;5031915;28;20280;-62
2022/09/21 10:10:02;;;;;;;4.40;1.10;;;14.50;99.90;;;;;;5032388;28;20677;-64
2022/09/21 10:12:31;;;;;;;2.37;0.97;;;14.70;99.90;;;;;;5031859;28;20230;-62
2022/09/21 10:15:00;;;;;;;2.27;1.20;;;14.80;99.90;;;;;;5033041;28;20260;-62
2022/09/21 10:17:27;;;;;;;3.63;1.10;;;14.80;99.90;;;;;;5033028;28;20262;-59
2022/09/21 10:20:00;;;;;;;3.33;0.60;;;15.10;99.90;;;;;;5032513;28;20772;-58
2022/09/21 10:22:28;;;;;;;4.83;0.90;;;15.20;99.90;;;;;;5033058;28;20202;-58
2022/09/21 10:24:58;;;;;;;5.33;1.03;;;15.40;99.90;;;;;;5032123;28;20904;-62
2022/09/21 10:27:27;;;;;;;3.70;0.90;;;15.40;99.90;;;;;;5032696;28;20242;-62
2022/09/21 10:29:55;;;;;;;5.03;1.10;;;15.60;99.90;;;;;;5031911;28;20206;-61
2022/09/21 10:32:25;;;;;;;1.63;0.60;;;15.80;99.90;;;;;;5031314;28;20314;-62
2022/09/21 10:35:17;;;;;;;1.77;0.57;;;16.00;99.90;;;;;;5031347;28;20218;-63
2022/09/21 10:37:47;;;;;;;2.40;0.70;;;16.30;99.90;;;;;;5016939;28;20230;-63
2022/09/21 10:40:29;;;;;;;6.63;0.70;;;16.50;99.90;;;;;;5031381;28;20281;-62
2022/09/21 10:42:58;;;;;;;3.93;1.13;;;16.60;99.90;;;;;;5031353;28;20206;-62
2022/09/21 10:45:28;;;;;;;3.23;0.77;;;16.70;99.90;;;;;;5030572;28;20218;-62
2022/09/21 10:47:58;;;;;;;3.23;0.90;;;16.70;99.90;;;;;;5031591;28;20214;-62
2022/09/21 10:50:28;;;;;;;4.40;1.00;;;16.50;99.90;;;;;;5031532;28;20221;-61
2022/09/21 10:53:00;;;;;;;1.70;0.50;;;16.40;99.90;;;;;;5030856;28;21071;-63
2022/09/21 10:55:29;;;;;;;3.70;0.50;;;16.50;99.90;;;;;;5031731;28;20272;-62
2022/09/21 10:57:56;;;;;;;1.10;0.50;;;16.50;99.90;;;;;;5031104;28;20264;-60
2022/09/21 11:00:35;;;;;;;2.13;0.90;;;16.70;99.90;;;;;;5031554;28;20206;-58
2022/09/21 11:03:27;;;;;;;3.60;0.70;;;16.30;99.90;;;;;;5030820;28;20285;-62
2022/09/21 11:05:55;;;;;;;1.30;0.60;;;15.90;99.90;;;;;;5031540;28;20602;-60
2022/09/21 11:08:28;;;;;;;3.77;1.00;;;16.00;99.90;;;;;;5031229;28;20206;-58
2022/09/21 11:11:06;;;;;;;6.67;1.10;;;15.70;99.90;;;;;;5031443;28;20252;-60
2022/09/21 11:13:38;;;;;;;1.77;0.80;;;15.70;99.90;;;;;;5030798;28;20320;-62
2022/09/21 11:16:14;;;;;;;1.97;0.80;;;15.90;99.90;;;;;;5031121;28;20225;-60
2022/09/21 11:18:46;;;;;;;5.20;0.80;;;16.10;99.90;;;;;;5031234;28;20252;-65
2022/09/21 11:21:19;;;;;;;2.73;0.77;;;16.20;99.90;;;;;;5031088;28;20568;-64
2022/09/21 11:23:53;;;;;;;3.23;0.90;;;16.00;99.90;;;;;;5030865;28;20738;-63
2022/09/21 11:26:26;;;;;;;2.57;0.80;;;15.90;99.90;;;;;;5030719;28;20309;-63
2022/09/21 11:29:01;;;;;;;1.03;0.50;;;15.80;99.90;;;;;;5031532;28;20206;-63
2022/09/21 11:31:44;;;;;;;1.87;0.80;;;15.80;99.90;;;;;;5030651;28;20214;-62
2022/09/21 11:34:41;;;;;;;1.57;0.70;;;15.80;99.90;;;;;;5031022;28;20205;-63
2022/09/21 11:37:17;;;;;;;1.30;0.50;;;16.10;99.90;;;;;;5026310;28;20226;-63
2022/09/21 11:39:58;;;;;;;1.33;0.50;;;16.10;99.90;;;;;;5030552;28;20665;-61
2022/09/21 11:42:39;;;;;;;2.93;0.70;;;16.20;99.90;;;;;;5030441;28;20233;-62
2022/09/21 11:45:16;;;;;;;6.43;0.70;;;16.40;99.90;;;;;;5033660;28;20218;-62
2022/09/21 11:47:59;;;;;;;5.47;1.10;;;16.60;99.90;;;;;;5034231;28;20336;-61
2022/09/21 11:50:47;;;;;;;2.43;0.60;;;16.70;99.90;;;;;;5034974;28;20259;-62
2022/09/21 11:53:31;;;;;;;1.87;0.60;;;16.90;99.90;;;;;;5034039;28;20749;-63
2022/09/21 11:56:15;;;;;;;1.43;0.60;;;17.10;99.90;;;;;;5034445;28;20226;-63
2022/09/21 11:58:49;;;;;;;3.17;0.60;;;17.30;99.90;;;;;;5034514;28;20205;-62
2022/09/21 12:01:35;;;;;;;1.43;0.57;;;17.40;99.90;;;;;;5034486;28;20632;-63
2022/09/21 12:04:22;;;;;;;2.50;0.67;;;17.50;99.90;;;;;;5034291;28;20213;-62
2022/09/21 12:07:04;;;;;;;2.67;0.87;;;17.40;99.90;;;;;;5033571;28;20234;-58
2022/09/21 12:10:01;;;;;;;1.63;0.70;;;17.20;99.90;;;;;;5034367;28;20669;-57
2022/09/21 12:12:32;;;;;;;2.60;0.50;;;17.10;99.90;;;;;;5021625;28;20613;-62
2022/09/21 12:15:06;;;;;;;1.63;0.63;;;17.20;99.90;;;;;;5034730;28;20214;-63
2022/09/21 12:17:43;;;;;;;1.03;0.60;;;17.00;99.90;;;;;;5033947;28;20233;-62
2022/09/21 12:20:21;;;;;;;0.93;0.50;;;16.90;99.90;;;;;;5034456;28;20210;-62
2022/09/21 12:22:52;;;;;;;4.87;1.00;;;16.70;99.90;;;;;;5033754;28;20618;-59
2022/09/21 12:25:21;;;;;;;3.33;0.50;;;16.70;99.90;;;;;;5034316;28;20260;-60
2022/09/21 12:27:51;;;;;;;3.90;0.63;;;16.80;99.90;;;;;;5033649;28;20388;-59
2022/09/21 12:30:20;;;;;;;2.13;0.80;;;16.80;99.90;;;;;;5034075;28;20738;-61
2022/09/21 12:32:54;;;;;;;2.30;0.60;;;16.70;99.90;;;;;;5034642;28;20227;-58
2022/09/21 12:35:28;;;;;;;1.60;0.50;;;16.50;99.90;;;;;;5035655;28;20240;-62
2022/09/21 12:37:59;;;;;;;2.07;0.60;;;16.60;99.90;;;;;;5034064;28;20787;-61
2022/09/21 12:40:33;;;;;;;2.60;0.70;;;16.70;99.90;;;;;;5033888;28;20214;-63
2022/09/21 12:43:08;;;;;;;2.37;0.50;;;16.80;99.90;;;;;;5033979;28;20202;-60
2022/09/21 12:45:38;;;;;;;3.13;0.67;;;16.70;99.90;;;;;;5037135;28;20221;-62
2022/09/21 12:48:11;;;;;;;2.30;0.50;;;16.80;99.90;;;;;;5042935;28;20206;-63
2022/09/21 12:50:43;;;;;;;1.53;0.60;;;16.90;99.90;;;;;;5041928;28;20213;-65
2022/09/21 12:53:15;;;;;;;3.33;0.70;;;17.10;99.90;;;;;;5034561;28;20233;-64
2022/09/21 12:55:48;;;;;;;3.73;0.80;;;17.30;99.90;;;;;;5032531;28;20345;-63
2022/09/21 12:58:30;;;;;;;1.03;0.40;;;17.00;99.90;;;;;;5033958;28;20214;-63
2022/09/21 13:01:06;;;;;;;2.10;0.63;;;17.20;99.90;;;;;;5033155;28;20210;-64
2022/09/21 13:03:41;;;;;;;3.93;0.80;;;17.30;99.90;;;;;;5022874;28;20202;-67
2022/09/21 13:06:38;;;;;;;1.93;0.67;;;17.50;99.90;;;;;;5033329;28;20226;-64
2022/09/21 13:09:09;;;;;;;0.50;0.30;;;17.30;99.90;;;;;;5033916;28;20260;-62
2022/09/21 13:11:51;;;;;;;2.10;0.60;;;17.50;99.90;;;;;;5033333;28;20237;-62
2022/09/21 13:14:18;;;;;;;2.10;0.50;;;17.50;99.90;;;;;;5033236;28;20219;-59
2022/09/21 13:16:53;;;;;;;2.50;0.53;;;17.40;99.90;;;;;;5033357;28;20284;-62